createdAt,value
2022-10-02T00:02:30.875Z,15.52
2022-10-02T00:05:07.226Z,16.83
2022-10-02T00:07:36.984Z,16.90
2022-10-02T00:10:13.040Z,16.83
2022-10-02T00:12:40.633Z,16.87
2022-10-02T00:15:15.101Z,16.98
2022-10-02T00:17:45.094Z,16.86
2022-10-02T00:20:15.972Z,16.81
2022-10-02T00:22:56.180Z,16.99
2022-10-02T00:25:44.638Z,16.98
2022-10-02T00:28:25.080Z,16.81
2022-10-02T00:31:03.940Z,16.97
2022-10-02T00:33:41.592Z,16.89
2022-10-02T00:36:32.851Z,16.84
2022-10-02T00:39:11.621Z,16.70
2022-10-02T00:41:59.879Z,16.51
2022-10-02T00:44:53.067Z,16.62
2022-10-02T00:47:44.778Z,16.54
2022-10-02T00:50:41.005Z,16.07
2022-10-02T00:53:20.000Z,16.34
2022-10-02T00:56:08.599Z,16.32
2022-10-02T00:58:38.524Z,16.31
2022-10-02T01:01:46.184Z,16.29
2022-10-02T01:04:24.247Z,16.18
2022-10-02T01:06:51.319Z,16.30
2022-10-02T01:09:18.454Z,16.18
2022-10-02T01:11:45.734Z,16.35
2022-10-02T01:14:13.891Z,16.41
2022-10-02T01:16:42.514Z,16.47
2022-10-02T01:19:35.686Z,16.48
2022-10-02T01:22:25.969Z,16.30
2022-10-02T01:24:57.311Z,16.44
2022-10-02T01:27:25.695Z,16.57
2022-10-02T01:30:01.039Z,16.54
2022-10-02T01:32:29.426Z,16.42
2022-10-02T01:34:57.552Z,16.67
2022-10-02T01:37:29.527Z,16.57
2022-10-02T01:40:00.555Z,16.34
2022-10-02T01:42:27.727Z,16.51
2022-10-02T01:44:55.032Z,16.52
2022-10-02T01:47:35.125Z,16.56
2022-10-02T01:50:24.319Z,16.58
2022-10-02T01:53:09.953Z,16.61
2022-10-02T01:56:01.307Z,16.23
2022-10-02T01:58:46.029Z,16.52
2022-10-02T02:01:28.152Z,16.56
2022-10-02T02:04:25.778Z,16.48
2022-10-02T02:07:03.004Z,16.47
2022-10-02T02:09:40.917Z,16.57
2022-10-02T02:12:17.528Z,16.58
2022-10-02T02:14:52.405Z,16.61
2022-10-02T02:17:30.475Z,16.58
2022-10-02T02:20:04.319Z,16.47
2022-10-02T02:22:37.714Z,16.47
2022-10-02T02:25:14.221Z,16.56
2022-10-02T02:28:03.589Z,16.51
2022-10-02T02:30:34.019Z,16.50
2022-10-02T02:33:36.486Z,16.63
2022-10-02T02:36:12.750Z,16.65
2022-10-02T02:38:46.722Z,16.64
2022-10-02T02:41:21.032Z,16.67
2022-10-02T02:44:11.461Z,16.67
2022-10-02T02:47:03.328Z,16.51
2022-10-02T02:49:36.426Z,16.54
2022-10-02T02:52:08.340Z,16.52
2022-10-02T02:54:50.897Z,16.37
2022-10-02T02:57:25.218Z,16.17
2022-10-02T02:59:56.565Z,16.39
2022-10-02T03:02:23.616Z,16.35
2022-10-02T03:04:50.690Z,16.11
2022-10-02T03:07:18.147Z,16.25
2022-10-02T03:10:10.108Z,16.32
2022-10-02T03:12:46.108Z,16.33
2022-10-02T03:15:33.325Z,16.35
2022-10-02T03:18:10.554Z,16.31
2022-10-02T03:20:51.571Z,16.34
2022-10-02T03:23:38.072Z,16.33
2022-10-02T03:26:30.102Z,16.07
2022-10-02T03:29:01.403Z,16.15
2022-10-02T03:31:33.098Z,16.20
2022-10-02T03:34:02.319Z,16.38
2022-10-02T03:36:30.443Z,16.20
2022-10-02T03:41:49.064Z,16.36
2022-10-02T03:44:16.008Z,16.32
2022-10-02T03:46:43.002Z,15.81
2022-10-02T03:49:09.989Z,16.09
2022-10-02T03:51:37.269Z,16.29
2022-10-02T03:54:13.785Z,16.17
2022-10-02T03:56:43.725Z,16.00
2022-10-02T03:59:16.105Z,15.94
2022-10-02T04:01:52.129Z,15.93
2022-10-02T04:04:27.133Z,15.66
2022-10-02T04:06:53.960Z,15.89
2022-10-02T04:09:34.952Z,15.69
2022-10-02T04:12:10.893Z,15.66
2022-10-02T04:15:02.211Z,15.58
2022-10-02T04:17:48.093Z,15.41
2022-10-02T04:20:35.406Z,15.15
2022-10-02T04:23:13.086Z,15.27
2022-10-02T04:25:47.719Z,15.05
2022-10-02T04:28:17.643Z,15.03
2022-10-02T04:30:44.705Z,15.04
2022-10-02T04:33:15.406Z,15.05
2022-10-02T04:35:51.450Z,15.11
2022-10-02T04:38:36.721Z,15.12
2022-10-02T04:41:15.742Z,15.15
2022-10-02T04:43:48.716Z,15.01
2022-10-02T04:46:40.491Z,15.02
2022-10-02T04:49:41.534Z,14.84
2022-10-02T04:52:46.192Z,14.84
2022-10-02T04:55:18.764Z,14.78
2022-10-02T04:58:11.190Z,14.80
2022-10-02T05:00:49.403Z,14.81
2022-10-02T05:03:40.519Z,14.52
2022-10-02T05:06:29.218Z,14.57
2022-10-02T05:09:10.717Z,14.54
2022-10-02T05:11:47.848Z,14.44
2022-10-02T05:14:21.106Z,14.42
2022-10-02T05:17:12.968Z,14.48
2022-10-02T05:19:40.201Z,14.48
2022-10-02T05:22:16.175Z,14.52
2022-10-02T05:25:05.917Z,14.38
2022-10-02T05:28:06.609Z,14.56
2022-10-02T05:30:48.537Z,14.46
2022-10-02T05:33:41.097Z,14.45
2022-10-02T05:36:23.218Z,14.56
2022-10-02T05:39:17.732Z,14.17
2022-10-02T05:41:58.319Z,14.33
2022-10-02T05:44:51.024Z,14.33
2022-10-02T05:47:26.418Z,14.39
2022-10-02T05:49:59.867Z,14.34
2022-10-02T05:52:39.861Z,14.20
2022-10-02T05:55:21.133Z,14.20
2022-10-02T05:57:53.167Z,14.19
2022-10-02T06:00:36.178Z,14.08
2022-10-02T06:03:15.714Z,13.86
2022-10-02T06:06:02.483Z,13.95
2022-10-02T06:08:43.070Z,14.01
2022-10-02T06:11:23.465Z,13.78
2022-10-02T06:13:56.645Z,13.84
2022-10-02T06:16:39.015Z,13.99
2022-10-02T06:19:37.518Z,13.94
2022-10-02T06:22:17.310Z,13.33
2022-10-02T06:24:58.789Z,13.54
2022-10-02T06:27:36.045Z,13.30
2022-10-02T06:30:10.497Z,13.61
2022-10-02T06:32:56.151Z,13.52
2022-10-02T06:36:07.970Z,13.54
2022-10-02T06:38:40.678Z,13.55
2022-10-02T06:41:22.555Z,13.14
2022-10-02T06:44:09.772Z,13.24
2022-10-02T06:46:53.189Z,13.49
2022-10-02T06:49:52.774Z,13.80
2022-10-02T06:52:38.203Z,13.84
2022-10-02T06:55:17.683Z,13.91
2022-10-02T06:58:06.340Z,13.78
2022-10-02T07:00:40.100Z,13.64
2022-10-02T07:03:23.124Z,13.83
2022-10-02T07:06:02.319Z,13.82
2022-10-02T07:09:15.307Z,13.84
2022-10-02T07:12:08.453Z,13.88
2022-10-02T07:14:57.511Z,14.01
2022-10-02T07:17:47.340Z,14.11
2022-10-02T07:20:20.248Z,14.18
2022-10-02T07:23:18.320Z,14.24
2022-10-02T07:25:45.226Z,14.34
2022-10-02T07:28:33.656Z,14.50
2022-10-02T07:31:20.899Z,14.59
2022-10-02T07:34:15.060Z,14.72
2022-10-02T07:36:48.743Z,14.75
2022-10-02T07:39:47.105Z,14.82
2022-10-02T07:42:25.839Z,14.94
2022-10-02T07:45:17.037Z,15.07
2022-10-02T07:48:21.617Z,15.14
2022-10-02T07:50:51.374Z,15.22
2022-10-02T07:53:18.244Z,15.34
2022-10-02T07:55:51.173Z,15.22
2022-10-02T07:58:31.310Z,15.28
2022-10-02T08:01:06.029Z,15.23
2022-10-02T08:03:43.423Z,15.50
2022-10-02T08:06:10.874Z,15.20
2022-10-02T08:08:43.718Z,15.58
2022-10-02T08:11:16.033Z,15.70
2022-10-02T08:13:57.089Z,15.55
2022-10-02T08:16:32.625Z,15.81
2022-10-02T08:19:05.788Z,15.84
2022-10-02T08:21:41.241Z,15.91
2022-10-02T08:24:16.336Z,15.91
2022-10-02T08:26:52.535Z,15.93
2022-10-02T08:29:22.354Z,15.98
2022-10-02T08:31:53.147Z,16.10
2022-10-02T08:34:22.974Z,16.04
2022-10-02T08:36:55.768Z,16.13
2022-10-02T08:40:01.729Z,16.08
2022-10-02T08:42:56.889Z,16.32
2022-10-02T08:45:47.539Z,16.35
2022-10-02T08:48:37.298Z,16.43
2022-10-02T08:51:25.785Z,16.58
2022-10-02T08:54:24.807Z,16.63
2022-10-02T08:57:13.980Z,16.81
2022-10-02T09:00:09.807Z,16.95
2022-10-02T09:02:55.461Z,16.92
2022-10-02T09:06:01.437Z,17.13
2022-10-02T09:09:07.537Z,17.22
2022-10-02T09:11:40.666Z,17.26
2022-10-02T09:14:45.297Z,17.40
2022-10-02T09:17:25.146Z,17.48
2022-10-02T09:20:10.452Z,17.67
2022-10-02T09:22:55.376Z,17.71
2022-10-02T09:25:42.966Z,17.73
2022-10-02T09:28:34.409Z,17.92
2022-10-02T09:31:26.286Z,18.05
2022-10-02T09:34:09.336Z,18.07
2022-10-02T09:37:25.007Z,18.09
2022-10-02T09:40:10.001Z,18.34
2022-10-02T09:42:58.410Z,18.37
2022-10-02T09:46:03.275Z,18.32
2022-10-02T09:48:59.542Z,18.20
2022-10-02T09:52:07.052Z,18.26
2022-10-02T09:55:07.940Z,18.25
2022-10-02T09:58:00.830Z,18.28
2022-10-02T10:00:40.134Z,18.31
2022-10-02T10:03:36.885Z,18.45
2022-10-02T10:06:28.398Z,18.42
2022-10-02T10:09:10.281Z,18.48
2022-10-02T10:11:40.108Z,18.58
2022-10-02T10:14:45.406Z,18.61
2022-10-02T10:17:56.639Z,18.70
2022-10-02T10:20:34.626Z,18.84
2022-10-02T10:23:16.723Z,18.94
2022-10-02T10:26:08.552Z,18.97
2022-10-02T10:28:53.905Z,18.91
2022-10-02T10:31:36.283Z,19.01
2022-10-02T10:34:28.316Z,18.82
2022-10-02T10:37:26.178Z,18.86
2022-10-02T10:40:15.865Z,18.80
2022-10-02T10:43:07.888Z,18.68
2022-10-02T10:46:04.035Z,18.85
2022-10-02T10:48:31.153Z,18.90
2022-10-02T10:51:16.965Z,18.50
2022-10-02T10:54:01.882Z,18.77
2022-10-02T10:56:37.205Z,18.48
2022-10-02T10:59:17.743Z,18.69
2022-10-02T11:02:27.000Z,18.72
2022-10-02T11:05:22.725Z,18.60
2022-10-02T11:07:58.610Z,18.53
2022-10-02T11:10:44.241Z,18.61
2022-10-02T11:13:37.433Z,18.65
2022-10-02T11:16:32.900Z,18.58
2022-10-02T11:19:21.358Z,18.53
2022-10-02T11:22:12.758Z,18.76
2022-10-02T11:25:21.450Z,18.72
2022-10-02T11:28:32.788Z,18.69
2022-10-02T11:31:17.491Z,18.54
2022-10-02T11:34:20.501Z,18.58
2022-10-02T11:36:56.663Z,18.59
2022-10-02T11:39:32.616Z,18.47
2022-10-02T11:42:33.662Z,18.52
2022-10-02T11:45:08.879Z,18.32
2022-10-02T11:47:51.196Z,18.53
2022-10-02T11:50:48.770Z,18.62
2022-10-02T11:53:34.539Z,18.72
2022-10-02T11:56:27.847Z,18.78
2022-10-02T11:59:20.002Z,18.91
2022-10-02T12:02:08.030Z,18.90
2022-10-02T12:05:17.089Z,18.92
2022-10-02T12:07:53.297Z,18.71
2022-10-02T12:10:42.309Z,18.95
2022-10-02T12:13:21.135Z,19.10
2022-10-02T12:16:09.057Z,19.01
2022-10-02T12:19:04.197Z,19.24
2022-10-02T12:22:24.542Z,19.33
2022-10-02T12:25:36.985Z,19.19
2022-10-02T12:28:21.927Z,19.50
2022-10-02T12:31:15.268Z,19.48
2022-10-02T12:33:56.572Z,19.50
2022-10-02T12:36:42.000Z,19.54
2022-10-02T12:39:40.112Z,19.52
2022-10-02T12:42:12.143Z,19.49
2022-10-02T12:44:45.036Z,19.33
2022-10-02T12:47:47.652Z,19.27
2022-10-02T12:50:46.090Z,19.21
2022-10-02T12:53:36.593Z,19.27
2022-10-02T12:56:36.427Z,19.45
2022-10-02T12:59:23.184Z,19.28
2022-10-02T13:02:06.380Z,19.39
2022-10-02T13:05:23.813Z,19.31
2022-10-02T13:08:14.259Z,19.40
2022-10-02T13:10:47.795Z,19.16
2022-10-02T13:13:15.878Z,19.38
2022-10-02T13:16:11.797Z,19.55
2022-10-02T13:18:57.213Z,19.38
2022-10-02T13:21:37.246Z,19.27
2022-10-02T13:24:22.331Z,19.44
2022-10-02T13:27:06.538Z,19.39
2022-10-02T13:30:12.220Z,19.31
2022-10-02T13:33:06.133Z,19.40
2022-10-02T13:35:53.013Z,19.29
2022-10-02T13:38:47.563Z,19.30
2022-10-02T13:41:26.414Z,19.28
2022-10-02T13:44:12.318Z,19.31
2022-10-02T13:46:54.356Z,19.31
2022-10-02T13:49:47.775Z,19.07
2022-10-02T13:52:38.363Z,19.20
2022-10-02T13:55:22.309Z,19.11
2022-10-02T13:57:49.263Z,19.01
2022-10-02T14:00:40.423Z,19.01
2022-10-02T14:03:16.172Z,18.96
2022-10-02T14:05:57.070Z,19.20
2022-10-02T14:08:33.946Z,19.18
2022-10-02T14:11:09.634Z,19.25
2022-10-02T14:14:03.565Z,19.16
2022-10-02T14:16:45.803Z,18.91
2022-10-02T14:19:24.522Z,18.83
2022-10-02T14:22:13.227Z,18.73
2022-10-02T14:25:01.092Z,18.64
2022-10-02T14:27:53.078Z,18.57
2022-10-02T14:30:34.300Z,18.48
2022-10-02T14:33:16.899Z,18.07
2022-10-02T14:35:52.265Z,18.14
2022-10-02T14:38:37.351Z,17.89
2022-10-02T14:41:30.620Z,17.80
2022-10-02T14:44:41.335Z,17.80
2022-10-02T14:47:29.067Z,17.63
2022-10-02T14:50:14.525Z,17.65
2022-10-02T14:53:38.615Z,17.54
2022-10-02T14:56:27.935Z,17.35
2022-10-02T14:59:15.099Z,17.08
2022-10-02T15:02:08.933Z,17.10
2022-10-02T15:04:55.148Z,17.11
2022-10-02T15:07:26.252Z,16.92
2022-10-02T15:10:16.360Z,16.77
2022-10-02T15:13:01.635Z,16.77
2022-10-02T15:15:43.376Z,16.75
2022-10-02T15:18:20.198Z,16.73
2022-10-02T15:21:13.393Z,16.66
2022-10-02T15:23:50.629Z,16.69
2022-10-02T15:26:30.413Z,16.62
2022-10-02T15:29:21.294Z,16.31
2022-10-02T15:32:30.031Z,16.42
2022-10-02T15:35:33.845Z,16.07
2022-10-02T15:38:19.287Z,15.94
2022-10-02T15:41:17.116Z,15.83
2022-10-02T15:44:22.887Z,15.87
2022-10-02T15:46:54.582Z,15.79
2022-10-02T15:49:24.103Z,15.87
2022-10-02T15:52:09.336Z,15.79
2022-10-02T15:54:45.584Z,15.63
2022-10-02T15:57:40.264Z,15.68
2022-10-02T16:00:18.505Z,15.63
2022-10-02T16:02:57.531Z,15.57
2022-10-02T16:05:44.398Z,15.43
2022-10-02T16:08:32.969Z,15.62
2022-10-02T16:11:24.118Z,15.63
2022-10-02T16:13:50.941Z,15.65
2022-10-02T16:16:33.155Z,15.65
2022-10-02T16:19:02.907Z,15.63
2022-10-02T16:21:32.784Z,15.62
2022-10-02T16:24:15.059Z,15.65
2022-10-02T16:27:00.421Z,15.67
2022-10-02T16:29:42.318Z,15.70
2022-10-02T16:32:15.571Z,15.60
2022-10-02T16:35:11.394Z,15.69
2022-10-02T16:37:45.193Z,15.60
2022-10-02T16:40:40.624Z,15.66
2022-10-02T16:43:41.281Z,15.68
2022-10-02T16:46:16.487Z,15.32
2022-10-02T16:48:53.388Z,15.47
2022-10-02T16:51:51.446Z,15.58
2022-10-02T16:54:34.912Z,15.20
2022-10-02T16:57:20.011Z,15.54
2022-10-02T17:00:09.785Z,15.32
2022-10-02T17:02:45.048Z,15.50
2022-10-02T17:05:23.057Z,15.47
2022-10-02T17:07:59.464Z,15.49
2022-10-02T17:10:29.178Z,15.42
2022-10-02T17:13:25.890Z,15.26
2022-10-02T17:16:11.717Z,15.14
2022-10-02T17:18:48.769Z,15.24
2022-10-02T17:21:24.455Z,15.34
2022-10-02T17:24:21.475Z,15.23
2022-10-02T17:27:07.234Z,15.22
2022-10-02T17:29:48.104Z,15.24
2022-10-02T17:32:34.721Z,15.18
2022-10-02T17:35:01.876Z,15.05
2022-10-02T17:38:02.134Z,14.95
2022-10-02T17:40:46.732Z,14.98
2022-10-02T17:43:55.195Z,15.09
2022-10-02T17:46:51.586Z,15.02
2022-10-02T17:49:24.518Z,14.97
2022-10-02T17:52:41.123Z,14.96
2022-10-02T17:55:32.691Z,14.92
2022-10-02T17:58:27.065Z,14.77
2022-10-02T18:01:15.323Z,14.90
2022-10-02T18:04:19.105Z,14.89
2022-10-02T18:07:05.488Z,14.83
2022-10-02T18:10:01.443Z,14.73
2022-10-02T18:12:31.644Z,14.84
2022-10-02T18:15:01.452Z,14.79
2022-10-02T18:17:46.761Z,14.79
2022-10-02T18:20:35.031Z,14.71
2022-10-02T18:23:28.804Z,14.68
2022-10-02T18:26:18.731Z,14.58
2022-10-02T18:29:02.365Z,14.41
2022-10-02T18:31:56.318Z,14.50
2022-10-02T18:34:54.692Z,14.47
2022-10-02T18:37:28.045Z,14.43
2022-10-02T18:40:06.960Z,14.40
2022-10-02T18:43:03.187Z,14.39
2022-10-02T18:45:45.413Z,14.31
2022-10-02T18:48:49.828Z,14.32
2022-10-02T18:51:55.470Z,14.28
2022-10-02T18:54:34.494Z,14.20
2022-10-02T18:57:07.634Z,14.17
2022-10-02T18:59:59.598Z,14.15
2022-10-02T19:02:43.109Z,14.14
2022-10-02T19:05:28.516Z,14.10
2022-10-02T19:08:04.450Z,14.08
2022-10-02T19:10:31.395Z,14.06
2022-10-02T19:13:17.521Z,14.05
2022-10-02T19:15:47.221Z,13.97
2022-10-02T19:18:27.687Z,13.97
2022-10-02T19:21:13.691Z,13.95
2022-10-02T19:23:46.789Z,13.62
2022-10-02T19:26:26.328Z,13.71
2022-10-02T19:29:08.625Z,13.73
2022-10-02T19:31:39.602Z,13.70
2022-10-02T19:34:14.039Z,13.68
2022-10-02T19:36:50.436Z,13.65
2022-10-02T19:39:33.735Z,13.63
2022-10-02T19:42:06.264Z,13.59
2022-10-02T19:44:41.802Z,13.58
2022-10-02T19:47:35.119Z,13.60
2022-10-02T19:50:03.936Z,13.52
2022-10-02T19:52:40.763Z,13.44
2022-10-02T19:55:33.011Z,13.36
2022-10-02T19:58:08.043Z,13.27
2022-10-02T20:00:38.772Z,13.32
2022-10-02T20:03:13.889Z,13.07
2022-10-02T20:05:40.851Z,13.17
2022-10-02T20:08:16.748Z,13.09
2022-10-02T20:11:04.030Z,12.94
2022-10-02T20:13:40.223Z,12.55
2022-10-02T20:16:35.551Z,11.56
2022-10-02T20:19:04.484Z,12.88
2022-10-02T20:21:40.374Z,12.85
2022-10-02T20:24:44.890Z,12.82
2022-10-02T20:27:21.459Z,12.87
2022-10-02T20:29:55.886Z,12.78
2022-10-02T20:32:36.882Z,12.74
2022-10-02T20:35:19.098Z,12.78
2022-10-02T20:37:50.352Z,12.76
2022-10-02T20:40:27.698Z,12.62
2022-10-02T20:43:02.016Z,12.64
2022-10-02T20:45:44.521Z,12.51
2022-10-02T20:49:06.941Z,12.62
2022-10-02T20:51:51.694Z,12.54
2022-10-02T20:54:31.561Z,12.46
2022-10-02T20:57:11.351Z,12.39
2022-10-02T21:00:10.037Z,12.26
2022-10-02T21:03:05.004Z,12.40
2022-10-02T21:06:08.492Z,12.22
2022-10-02T21:09:06.315Z,12.32
2022-10-02T21:11:46.171Z,12.30
2022-10-02T21:14:22.658Z,12.25
2022-10-02T21:17:14.408Z,12.18
2022-10-02T21:20:50.822Z,12.15
2022-10-02T21:23:39.639Z,12.18
2022-10-02T21:26:51.941Z,11.88
2022-10-02T21:29:25.308Z,12.03
2022-10-02T21:31:56.516Z,12.08
2022-10-02T21:34:41.831Z,11.89
2022-10-02T21:37:13.079Z,12.05
2022-10-02T21:39:55.265Z,11.93
2022-10-02T21:42:43.923Z,11.90
2022-10-02T21:45:50.994Z,11.85
2022-10-02T21:48:39.928Z,11.76
2022-10-02T21:51:22.187Z,11.75
2022-10-02T21:54:11.679Z,11.76
2022-10-02T21:56:56.707Z,11.73
2022-10-02T21:59:45.247Z,11.69
2022-10-02T22:02:27.483Z,11.58
2022-10-02T22:05:03.719Z,11.44
2022-10-02T22:07:44.283Z,11.43
2022-10-02T22:10:44.786Z,11.24
2022-10-02T22:13:38.115Z,11.33
2022-10-02T22:16:11.081Z,11.23
2022-10-02T22:18:59.154Z,11.26
2022-10-02T22:21:42.487Z,11.13
2022-10-02T22:24:24.526Z,11.25
2022-10-02T22:27:18.823Z,11.19
2022-10-02T22:29:52.617Z,11.07
2022-10-02T22:33:13.230Z,11.08
2022-10-02T22:36:06.302Z,10.92
2022-10-02T22:39:00.322Z,11.04
2022-10-02T22:41:34.489Z,10.87
2022-10-02T22:44:09.308Z,10.81
2022-10-02T22:46:41.323Z,10.72
2022-10-02T22:49:29.595Z,10.77
2022-10-02T22:52:17.628Z,10.74
2022-10-02T22:55:15.161Z,10.76
2022-10-02T22:57:52.830Z,10.41
2022-10-02T23:00:30.086Z,10.47
2022-10-02T23:03:23.195Z,10.70
2022-10-02T23:05:55.570Z,10.63
2022-10-02T23:08:46.329Z,10.28
2022-10-02T23:11:42.905Z,10.25
2022-10-02T23:14:19.692Z,9.82
2022-10-02T23:17:25.821Z,9.83
2022-10-02T23:20:12.163Z,9.49
2022-10-02T23:22:47.434Z,9.85
2022-10-02T23:25:18.210Z,9.60
2022-10-02T23:27:48.347Z,9.75
2022-10-02T23:30:20.704Z,9.08
2022-10-02T23:45:17.403Z,9.33
2022-10-02T23:47:54.963Z,9.37
2022-10-02T23:50:26.487Z,9.47
2022-10-02T23:53:08.892Z,9.30
2022-10-02T23:56:05.682Z,9.28
2022-10-02T23:58:51.335Z,9.55
